createdAt,value
2023-03-19T00:01:04.816Z,99330.38
2023-03-19T00:03:42.772Z,99333.09
2023-03-19T00:06:10.927Z,99330.89
2023-03-19T00:08:39.129Z,99332.80
2023-03-19T00:11:09.417Z,99333.07
2023-03-19T00:13:37.525Z,99330.17
2023-03-19T00:16:07.253Z,99334.97
2023-03-19T00:18:35.497Z,99330.47
2023-03-19T00:21:03.939Z,99329.15
2023-03-19T00:23:32.038Z,99329.73
2023-03-19T00:26:00.118Z,99328.62
2023-03-19T00:28:28.510Z,99328.19
2023-03-19T00:30:57.402Z,99330.10
2023-03-19T00:33:26.645Z,99333.07
2023-03-19T00:35:55.733Z,99337.25
2023-03-19T00:38:24.185Z,99337.73
2023-03-19T00:40:52.311Z,99335.16
2023-03-19T00:43:20.464Z,99334.34
2023-03-19T00:45:48.648Z,99333.54
2023-03-19T00:48:17.488Z,99335.52
2023-03-19T00:50:45.790Z,99334.94
2023-03-19T00:53:14.101Z,99338.95
2023-03-19T00:55:42.372Z,99340.10
2023-03-19T00:58:10.966Z,99340.65
2023-03-19T01:00:40.073Z,99338.91
2023-03-19T01:03:08.194Z,99342.67
2023-03-19T01:08:04.729Z,99340.58
2023-03-19T01:10:34.872Z,99342.24
2023-03-19T01:13:03.496Z,99341.21
2023-03-19T01:15:38.859Z,99341.52
2023-03-19T01:18:07.876Z,99337.15
2023-03-19T01:20:38.050Z,99338.35
2023-03-19T01:23:07.167Z,99337.85
2023-03-19T01:25:35.729Z,99337.52
2023-03-19T01:28:06.062Z,99335.84
2023-03-19T01:30:34.416Z,99332.74
2023-03-19T01:33:22.555Z,99336.40
2023-03-19T01:36:03.212Z,99339.66
2023-03-19T01:38:38.223Z,99342.55
2023-03-19T01:41:10.699Z,99338.20
2023-03-19T01:43:39.144Z,99340.70
2023-03-19T01:46:37.750Z,99340.39
2023-03-19T01:49:31.889Z,99342.22
2023-03-19T01:52:16.917Z,99337.18
2023-03-19T01:55:09.452Z,99336.31
2023-03-19T01:57:51.258Z,99332.66
2023-03-19T02:00:51.432Z,99337.50
2023-03-19T02:03:19.623Z,99338.25
2023-03-19T02:06:12.325Z,99337.40
2023-03-19T02:08:41.609Z,99336.85
2023-03-19T02:11:10.621Z,99340.45
2023-03-19T02:13:39.019Z,99337.64
2023-03-19T02:16:07.659Z,99332.55
2023-03-19T02:18:36.778Z,99332.30
2023-03-19T02:21:12.136Z,99334.30
2023-03-19T02:23:55.621Z,99335.97
2023-03-19T02:26:36.972Z,99340.45
2023-03-19T02:29:06.184Z,99339.31
2023-03-19T02:31:36.538Z,99339.64
2023-03-19T02:34:26.761Z,99341.70
2023-03-19T02:37:00.090Z,99340.99
2023-03-19T02:39:44.198Z,99343.55
2023-03-19T02:42:14.833Z,99344.79
2023-03-19T02:44:43.437Z,99344.45
2023-03-19T02:47:12.151Z,99347.20
2023-03-19T02:49:40.389Z,99354.64
2023-03-19T02:52:08.977Z,99352.55
2023-03-19T02:54:37.084Z,99349.06
2023-03-19T02:57:05.598Z,99349.44
2023-03-19T02:59:34.098Z,99349.65
2023-03-19T03:02:02.648Z,99347.05
2023-03-19T03:04:32.105Z,99352.15
2023-03-19T03:07:00.978Z,99349.01
2023-03-19T03:09:29.183Z,99349.69
2023-03-19T03:11:57.315Z,99346.41
2023-03-19T03:14:25.537Z,99347.39
2023-03-19T03:16:53.644Z,99347.55
2023-03-19T03:19:21.739Z,99348.05
2023-03-19T03:21:49.865Z,99347.00
2023-03-19T03:24:17.918Z,99348.56
2023-03-19T03:26:46.322Z,99346.73
2023-03-19T03:29:16.747Z,99350.60
2023-03-19T03:31:44.899Z,99353.85
2023-03-19T03:34:13.067Z,99351.59
2023-03-19T03:36:41.193Z,99351.69
2023-03-19T03:39:09.223Z,99353.56
2023-03-19T03:41:37.615Z,99358.75
2023-03-19T03:44:06.053Z,99361.20
2023-03-19T03:46:35.412Z,99358.05
2023-03-19T03:49:03.522Z,99361.00
2023-03-19T03:51:32.943Z,99354.76
2023-03-19T03:54:01.429Z,99351.45
2023-03-19T03:56:29.690Z,99345.37
2023-03-19T03:58:58.018Z,99345.59
2023-03-19T04:01:26.067Z,99342.92
2023-03-19T04:03:54.807Z,99347.80
2023-03-19T04:06:25.111Z,99347.98
2023-03-19T04:09:17.239Z,99353.92
2023-03-19T04:11:45.640Z,99354.73
2023-03-19T04:14:13.913Z,99357.25
2023-03-19T04:16:44.166Z,99355.04
2023-03-19T04:19:12.398Z,99354.77
2023-03-19T04:21:40.496Z,99353.75
2023-03-19T04:24:10.582Z,99354.33
2023-03-19T04:26:39.048Z,99355.64
2023-03-19T04:29:08.812Z,99360.80
2023-03-19T04:31:37.070Z,99357.67
2023-03-19T04:34:05.907Z,99354.08
2023-03-19T04:36:34.078Z,99357.99
2023-03-19T04:39:02.228Z,99356.20
2023-03-19T04:41:30.550Z,99360.25
2023-03-19T04:44:06.370Z,99359.89
2023-03-19T04:46:35.467Z,99364.14
2023-03-19T04:49:03.759Z,99362.79
2023-03-19T04:51:32.559Z,99366.59
2023-03-19T04:54:00.985Z,99371.48
2023-03-19T04:56:29.273Z,99371.21
2023-03-19T04:58:57.419Z,99369.63
2023-03-19T05:01:25.608Z,99371.33
2023-03-19T05:04:02.406Z,99368.31
2023-03-19T05:06:32.242Z,99367.16
2023-03-19T05:09:00.863Z,99363.55
2023-03-19T05:11:28.892Z,99361.42
2023-03-19T05:14:16.230Z,99366.38
2023-03-19T05:17:04.859Z,99365.95
2023-03-19T05:19:43.969Z,99361.48
2023-03-19T05:22:12.088Z,99366.11
2023-03-19T05:24:40.381Z,99367.16
2023-03-19T05:27:09.262Z,99366.59
2023-03-19T05:30:13.053Z,99361.27
2023-03-19T05:33:00.118Z,99365.07
2023-03-19T05:35:41.029Z,99368.25
2023-03-19T05:38:29.396Z,99369.20
2023-03-19T05:41:05.161Z,99368.95
2023-03-19T05:44:05.852Z,99366.58
2023-03-19T05:46:57.355Z,99367.16
2023-03-19T05:49:27.690Z,99367.96
2023-03-19T05:51:55.824Z,99364.11
2023-03-19T05:54:24.812Z,99358.40
2023-03-19T05:57:05.198Z,99354.15
2023-03-19T05:59:40.230Z,99354.88
2023-03-19T06:02:20.892Z,99353.98
2023-03-19T06:04:49.524Z,99352.64
2023-03-19T06:07:18.895Z,99349.48
2023-03-19T06:09:47.129Z,99351.98
2023-03-19T06:12:16.477Z,99350.21
2023-03-19T06:14:44.773Z,99347.30
2023-03-19T06:17:45.008Z,99342.63
2023-03-19T06:20:14.042Z,99345.96
2023-03-19T06:22:43.705Z,99344.79
2023-03-19T06:25:12.151Z,99346.52
2023-03-19T06:27:40.355Z,99346.98
2023-03-19T06:30:19.350Z,99347.97
2023-03-19T06:32:47.649Z,99349.42
2023-03-19T06:35:15.893Z,99350.82
2023-03-19T06:37:45.328Z,99347.09
2023-03-19T06:40:13.917Z,99346.13
2023-03-19T06:42:45.918Z,99345.11
2023-03-19T06:45:16.600Z,99349.98
2023-03-19T06:47:45.504Z,99352.07
2023-03-19T06:50:18.010Z,99354.52
2023-03-19T06:52:46.714Z,99358.21
2023-03-19T06:55:14.982Z,99354.57
2023-03-19T06:57:43.267Z,99354.32
2023-03-19T07:00:11.974Z,99360.73
2023-03-19T07:02:40.318Z,99361.04
2023-03-19T07:05:08.736Z,99366.64
2023-03-19T07:07:37.050Z,99368.66
2023-03-19T07:10:06.638Z,99363.96
2023-03-19T07:12:34.824Z,99363.16
2023-03-19T07:15:04.817Z,99369.12
2023-03-19T07:17:32.884Z,99365.21
2023-03-19T07:20:01.016Z,99361.27
2023-03-19T07:22:29.135Z,99363.03
2023-03-19T07:24:57.178Z,99368.13
2023-03-19T07:27:25.400Z,99371.98
2023-03-19T07:29:55.613Z,99372.59
2023-03-19T07:32:23.671Z,99372.76
2023-03-19T07:34:51.786Z,99369.20
2023-03-19T07:37:22.390Z,99369.80
2023-03-19T07:39:50.882Z,99362.29
2023-03-19T07:42:19.075Z,99358.56
2023-03-19T07:44:47.164Z,99358.52
2023-03-19T07:47:27.992Z,99354.52
2023-03-19T07:49:57.898Z,99352.20
2023-03-19T07:52:27.075Z,99353.84
2023-03-19T07:54:55.756Z,99353.15
2023-03-19T07:57:25.476Z,99350.86
2023-03-19T07:59:54.001Z,99348.27
2023-03-19T08:02:23.556Z,99346.36
2023-03-19T08:04:52.181Z,99344.61
2023-03-19T08:07:20.677Z,99339.17
2023-03-19T08:09:49.247Z,99332.75
2023-03-19T08:12:17.443Z,99331.08
2023-03-19T08:14:45.529Z,99334.03
2023-03-19T08:17:13.663Z,99325.02
2023-03-19T08:19:41.847Z,99322.16
2023-03-19T08:22:10.778Z,99319.84
2023-03-19T08:24:38.923Z,99320.09
2023-03-19T08:27:08.124Z,99322.92
2023-03-19T08:29:36.702Z,99320.89
2023-03-19T08:32:05.024Z,99320.81
2023-03-19T08:34:33.605Z,99318.96
2023-03-19T08:37:02.331Z,99319.27
2023-03-19T08:39:30.367Z,99315.85
2023-03-19T08:41:58.509Z,99308.63
2023-03-19T08:44:26.696Z,99307.14
2023-03-19T08:46:54.900Z,99309.78
2023-03-19T08:49:23.051Z,99312.42
2023-03-19T08:51:51.427Z,99314.05
2023-03-19T08:54:22.174Z,99310.58
2023-03-19T08:56:51.360Z,99303.30
2023-03-19T08:59:20.105Z,99303.96
2023-03-19T09:01:52.976Z,99301.05
2023-03-19T09:04:22.232Z,99298.29
2023-03-19T09:06:53.414Z,99297.67
2023-03-19T09:09:24.176Z,99302.80
2023-03-19T09:11:52.214Z,99309.27
2023-03-19T09:14:20.709Z,99312.91
2023-03-19T09:16:49.257Z,99313.98
2023-03-19T09:19:17.516Z,99311.58
2023-03-19T09:21:46.412Z,99313.17
2023-03-19T09:24:15.497Z,99308.94
2023-03-19T09:26:43.504Z,99305.80
2023-03-19T09:29:12.153Z,99303.42
2023-03-19T09:31:40.336Z,99305.81
2023-03-19T09:34:08.949Z,99309.15
2023-03-19T09:36:37.961Z,99307.38
2023-03-19T09:39:07.419Z,99299.98
2023-03-19T09:41:49.707Z,99302.25
2023-03-19T09:44:39.598Z,99298.09
2023-03-19T09:47:28.932Z,99297.52
2023-03-19T09:50:13.471Z,99295.14
2023-03-19T09:52:56.603Z,99291.71
2023-03-19T09:55:24.984Z,99288.60
2023-03-19T09:57:55.577Z,99282.65
2023-03-19T10:00:32.495Z,99280.04
2023-03-19T10:03:12.282Z,99278.84
2023-03-19T10:06:17.327Z,99277.96
2023-03-19T10:08:51.933Z,99275.69
2023-03-19T10:11:45.915Z,99269.30
2023-03-19T10:14:35.630Z,99264.80
2023-03-19T10:17:07.257Z,99257.72
2023-03-19T10:19:43.175Z,99250.81
2023-03-19T10:22:19.065Z,99253.77
2023-03-19T10:24:49.758Z,99254.38
2023-03-19T10:27:21.563Z,99255.62
2023-03-19T10:29:49.758Z,99253.30
2023-03-19T10:32:38.295Z,99250.14
2023-03-19T10:35:16.956Z,99246.21
2023-03-19T10:37:45.090Z,99243.25
2023-03-19T10:40:45.361Z,99243.95
2023-03-19T10:43:18.825Z,99239.27
2023-03-19T10:45:49.163Z,99235.38
2023-03-19T10:48:19.236Z,99236.73
2023-03-19T10:51:00.251Z,99235.96
2023-03-19T10:53:38.767Z,99237.71
2023-03-19T10:56:20.773Z,99238.06
2023-03-19T10:59:04.125Z,99235.77
2023-03-19T11:01:39.169Z,99228.91
2023-03-19T11:04:18.799Z,99231.11
2023-03-19T11:06:52.117Z,99225.95
2023-03-19T11:09:40.636Z,99219.18
2023-03-19T11:12:43.204Z,99214.59
2023-03-19T11:15:28.971Z,99213.20
2023-03-19T11:17:59.557Z,99207.05
2023-03-19T11:20:37.198Z,99197.75
2023-03-19T11:23:17.135Z,99198.38
2023-03-19T11:25:53.634Z,99194.71
2023-03-19T11:28:26.442Z,99186.15
2023-03-19T11:31:19.815Z,99182.45
2023-03-19T11:33:54.453Z,99179.05
2023-03-19T11:36:28.451Z,99179.54
2023-03-19T11:39:18.778Z,99181.16
2023-03-19T11:42:22.411Z,99175.35
2023-03-19T11:45:29.014Z,99171.95
2023-03-19T11:48:06.099Z,99167.50
2023-03-19T11:51:01.434Z,99166.45
2023-03-19T11:54:09.807Z,99162.60
2023-03-19T11:56:50.463Z,99162.64
2023-03-19T11:59:49.748Z,99159.60
2023-03-19T12:02:34.847Z,99155.39
2023-03-19T12:05:15.584Z,99153.70
2023-03-19T12:07:48.902Z,99147.67
2023-03-19T12:10:29.425Z,99142.23
2023-03-19T12:13:24.867Z,99138.36
2023-03-19T12:16:09.733Z,99135.77
2023-03-19T12:18:54.329Z,99129.35
2023-03-19T12:21:35.200Z,99124.83
2023-03-19T12:24:31.886Z,99120.95
2023-03-19T12:27:30.750Z,99115.70
2023-03-19T12:30:12.269Z,99112.66
2023-03-19T12:33:18.389Z,99111.83
2023-03-19T12:35:50.447Z,99109.34
2023-03-19T12:38:28.031Z,99107.88
2023-03-19T12:41:12.699Z,99107.96
2023-03-19T12:44:04.231Z,99104.81
2023-03-19T12:46:44.264Z,99097.70
2023-03-19T12:49:18.796Z,99093.64
2023-03-19T12:51:54.171Z,99090.17
2023-03-19T12:54:29.840Z,99091.65
2023-03-19T12:57:07.664Z,99087.96
2023-03-19T13:00:01.622Z,99089.77
2023-03-19T13:02:48.858Z,99085.59
2023-03-19T13:05:32.507Z,99080.45
2023-03-19T13:08:27.752Z,99078.44
2023-03-19T13:10:59.691Z,99074.36
2023-03-19T13:13:35.003Z,99072.61
2023-03-19T13:16:12.146Z,99065.44
2023-03-19T13:18:59.098Z,99058.66
2023-03-19T13:21:31.523Z,99061.51
2023-03-19T13:24:28.520Z,99063.60
2023-03-19T13:27:01.333Z,99054.16
2023-03-19T13:29:31.928Z,99051.25
2023-03-19T13:32:08.369Z,99049.70
2023-03-19T13:34:38.481Z,99052.23
2023-03-19T13:37:15.853Z,99049.67
2023-03-19T13:39:46.385Z,99044.64
2023-03-19T13:42:20.354Z,99043.47
2023-03-19T13:45:03.599Z,99043.59
2023-03-19T13:47:32.850Z,99037.03
2023-03-19T13:50:16.052Z,99041.30
2023-03-19T13:52:44.979Z,99035.46
2023-03-19T13:55:28.380Z,99032.48
2023-03-19T13:58:12.370Z,99034.73
2023-03-19T14:00:46.900Z,99032.98
2023-03-19T14:03:23.040Z,99028.38
2023-03-19T14:05:54.866Z,99026.79
2023-03-19T14:08:27.605Z,99025.45
2023-03-19T14:10:59.553Z,99030.05
2023-03-19T14:13:32.473Z,99027.02
2023-03-19T14:16:08.260Z,99024.02
2023-03-19T14:18:41.188Z,99028.17
2023-03-19T14:21:17.004Z,99020.79
2023-03-19T14:23:57.697Z,99022.61
2023-03-19T14:26:29.491Z,99021.36
2023-03-19T14:29:01.987Z,99019.55
2023-03-19T14:31:39.018Z,99016.63
2023-03-19T14:34:42.352Z,99020.40
2023-03-19T14:37:39.571Z,99023.44
2023-03-19T14:40:21.387Z,99022.23
2023-03-19T14:43:20.413Z,99022.04
2023-03-19T14:45:57.758Z,99026.99
2023-03-19T14:48:54.054Z,99023.80
2023-03-19T14:51:22.089Z,99022.40
2023-03-19T14:53:59.070Z,99023.09
2023-03-19T14:56:32.942Z,99025.33
2023-03-19T14:59:04.244Z,99028.66
2023-03-19T15:01:38.606Z,99027.38
2023-03-19T15:04:11.074Z,99030.52
2023-03-19T15:06:46.684Z,99033.77
2023-03-19T15:09:18.214Z,99033.67
2023-03-19T15:11:49.098Z,99038.66
2023-03-19T15:14:57.840Z,99041.43
2023-03-19T15:17:28.752Z,99041.48
2023-03-19T15:20:00.955Z,99043.77
2023-03-19T15:22:28.944Z,99043.55
2023-03-19T15:25:12.486Z,99043.91
2023-03-19T15:27:42.360Z,99047.41
2023-03-19T15:30:22.315Z,99044.48
2023-03-19T15:33:04.344Z,99042.80
2023-03-19T15:35:36.783Z,99044.55
2023-03-19T15:38:10.748Z,99045.84
2023-03-19T15:40:41.931Z,99044.77
2023-03-19T15:43:12.741Z,99044.80
2023-03-19T15:45:46.098Z,99047.08
2023-03-19T15:48:33.065Z,99048.63
2023-03-19T15:51:04.268Z,99047.55
2023-03-19T15:53:34.397Z,99046.63
2023-03-19T15:56:04.562Z,99048.02
2023-03-19T15:58:39.712Z,99051.48
2023-03-19T16:01:10.006Z,99050.72
2023-03-19T16:03:44.290Z,99048.55
2023-03-19T16:06:33.139Z,99054.67
2023-03-19T16:09:19.336Z,99061.11
2023-03-19T16:11:47.609Z,99064.55
2023-03-19T16:14:17.193Z,99064.83
2023-03-19T16:16:47.118Z,99061.40
2023-03-19T16:19:50.814Z,99064.52
2023-03-19T16:22:31.428Z,99065.84
2023-03-19T16:25:02.046Z,99070.39
2023-03-19T16:27:41.093Z,99072.94
2023-03-19T16:30:25.323Z,99079.21
2023-03-19T16:33:01.793Z,99081.55
2023-03-19T16:35:33.484Z,99085.52
2023-03-19T16:38:13.219Z,99092.00
2023-03-19T16:40:47.836Z,99093.35
2023-03-19T16:43:34.512Z,99096.20
2023-03-19T16:46:12.373Z,99099.05
2023-03-19T16:48:40.714Z,99102.42
2023-03-19T16:51:18.356Z,99108.21
2023-03-19T16:53:48.335Z,99114.52
2023-03-19T16:56:18.877Z,99116.89
2023-03-19T16:58:48.390Z,99118.20
2023-03-19T17:01:20.237Z,99116.27
2023-03-19T17:03:49.863Z,99112.40
2023-03-19T17:06:20.686Z,99108.98
2023-03-19T17:08:48.919Z,99109.21
2023-03-19T17:11:43.052Z,99105.92
2023-03-19T17:14:19.914Z,99106.73
2023-03-19T17:16:50.731Z,99107.10
2023-03-19T17:19:22.210Z,99109.30
2023-03-19T17:21:53.582Z,99107.94
2023-03-19T17:24:32.426Z,99106.34
2023-03-19T17:27:04.398Z,99112.47
2023-03-19T17:29:33.277Z,99119.77
2023-03-19T17:32:02.552Z,99126.26
2023-03-19T17:34:32.069Z,99137.42
2023-03-19T17:37:02.285Z,99142.88
2023-03-19T17:39:31.439Z,99140.16
2023-03-19T17:42:00.006Z,99137.25
2023-03-19T17:44:28.398Z,99132.04
2023-03-19T17:46:57.073Z,99129.55
2023-03-19T17:49:31.802Z,99125.20
2023-03-19T17:52:00.297Z,99122.48
2023-03-19T17:54:28.651Z,99124.43
2023-03-19T17:56:56.919Z,99125.56
2023-03-19T17:59:25.312Z,99126.13
2023-03-19T18:01:53.404Z,99127.24
2023-03-19T18:04:25.853Z,99123.59
2023-03-19T18:06:55.978Z,99123.29
2023-03-19T18:09:28.546Z,99122.48
2023-03-19T18:11:56.789Z,99124.20
2023-03-19T18:14:25.075Z,99132.45
2023-03-19T18:16:53.421Z,99130.04
2023-03-19T18:19:30.708Z,99130.50
2023-03-19T18:21:59.285Z,99132.86
2023-03-19T18:24:27.767Z,99131.33
2023-03-19T18:26:55.909Z,99133.03
2023-03-19T18:29:24.049Z,99132.23
2023-03-19T18:31:52.339Z,99134.13
2023-03-19T18:34:20.594Z,99134.02
2023-03-19T18:36:48.816Z,99132.32
2023-03-19T18:39:17.203Z,99131.95
2023-03-19T18:41:45.334Z,99133.22
2023-03-19T18:44:13.897Z,99134.52
2023-03-19T18:46:42.301Z,99138.20
2023-03-19T18:49:24.296Z,99142.90
2023-03-19T18:52:04.101Z,99143.91
2023-03-19T18:54:32.531Z,99141.39
2023-03-19T18:57:02.060Z,99137.00
2023-03-19T18:59:32.865Z,99136.96
2023-03-19T19:02:25.436Z,99140.89
2023-03-19T19:04:53.551Z,99143.60
2023-03-19T19:07:21.756Z,99143.93
2023-03-19T19:09:50.093Z,99145.63
2023-03-19T19:12:19.045Z,99139.65
2023-03-19T19:14:47.566Z,99137.13
2023-03-19T19:17:24.075Z,99136.48
2023-03-19T19:19:52.348Z,99130.64
2023-03-19T19:22:20.590Z,99128.51
2023-03-19T19:24:48.982Z,99132.02
2023-03-19T19:27:20.148Z,99136.16
2023-03-19T19:29:49.579Z,99137.75
2023-03-19T19:32:26.466Z,99139.72
2023-03-19T19:34:55.371Z,99139.27
2023-03-19T19:37:23.869Z,99142.45
2023-03-19T19:39:52.001Z,99142.52
2023-03-19T19:42:22.143Z,99143.75
2023-03-19T19:44:57.716Z,99139.13
2023-03-19T19:47:27.806Z,99141.16
2023-03-19T19:49:56.636Z,99143.24
2023-03-19T19:52:24.717Z,99140.20
2023-03-19T19:54:52.868Z,99146.70
2023-03-19T19:57:24.720Z,99152.88
2023-03-19T19:59:54.854Z,99150.08
2023-03-19T20:02:31.181Z,99150.90
2023-03-19T20:04:59.303Z,99152.27
2023-03-19T20:07:27.629Z,99158.20
2023-03-19T20:09:55.760Z,99159.33
2023-03-19T20:12:28.047Z,99159.01
2023-03-19T20:14:57.694Z,99156.72
2023-03-19T20:17:27.360Z,99157.54
2023-03-19T20:19:55.760Z,99157.63
2023-03-19T20:22:23.896Z,99159.67
2023-03-19T20:24:51.921Z,99159.43
2023-03-19T20:27:30.505Z,99162.44
2023-03-19T20:29:59.222Z,99161.91
2023-03-19T20:32:33.051Z,99160.66
2023-03-19T20:35:02.176Z,99155.73
2023-03-19T20:37:30.769Z,99155.15
2023-03-19T20:39:58.986Z,99152.30
2023-03-19T20:42:30.686Z,99152.98
2023-03-19T20:44:59.715Z,99153.47
2023-03-19T20:47:29.048Z,99152.39
2023-03-19T20:49:57.089Z,99151.14
2023-03-19T20:52:25.979Z,99150.05
2023-03-19T20:54:54.304Z,99148.77
2023-03-19T20:57:31.021Z,99144.16
2023-03-19T21:00:02.638Z,99144.86
2023-03-19T21:02:31.186Z,99144.52
2023-03-19T21:04:59.588Z,99142.94
2023-03-19T21:07:33.653Z,99142.36
2023-03-19T21:10:19.903Z,99143.73
2023-03-19T21:12:48.072Z,99142.91
2023-03-19T21:15:16.881Z,99140.81
2023-03-19T21:17:45.069Z,99142.70
2023-03-19T21:20:26.482Z,99143.75
2023-03-19T21:23:01.866Z,99147.46
2023-03-19T21:25:31.855Z,99147.30
2023-03-19T21:28:04.446Z,99149.42
2023-03-19T21:30:37.953Z,99151.77
2023-03-19T21:33:06.701Z,99151.41
2023-03-19T21:35:35.151Z,99153.63
2023-03-19T21:38:03.476Z,99155.02
2023-03-19T21:40:31.643Z,99148.14
2023-03-19T21:43:02.898Z,99144.43
2023-03-19T21:45:35.458Z,99148.14
2023-03-19T21:48:31.223Z,99143.98
2023-03-19T21:51:04.181Z,99142.14
2023-03-19T21:53:32.844Z,99142.01
2023-03-19T21:56:01.535Z,99146.27
2023-03-19T21:58:35.379Z,99145.27
2023-03-19T22:01:04.803Z,99148.30
2023-03-19T22:03:34.338Z,99147.72
2023-03-19T22:06:02.371Z,99144.19
2023-03-19T22:08:30.632Z,99144.08
2023-03-19T22:11:02.780Z,99144.42
2023-03-19T22:13:34.264Z,99145.74
2023-03-19T22:16:02.423Z,99149.68
2023-03-19T22:18:30.491Z,99153.07
2023-03-19T22:20:58.553Z,99152.04
2023-03-19T22:23:26.676Z,99152.27
2023-03-19T22:25:54.984Z,99149.47
2023-03-19T22:28:34.013Z,99144.64
2023-03-19T22:31:03.324Z,99143.64
2023-03-19T22:33:31.656Z,99144.97
2023-03-19T22:35:59.794Z,99143.67
2023-03-19T22:38:27.979Z,99146.31
2023-03-19T22:40:56.643Z,99147.29
2023-03-19T22:43:33.708Z,99145.56
2023-03-19T22:46:09.258Z,99147.69
2023-03-19T22:48:38.665Z,99147.02
2023-03-19T22:51:07.040Z,99150.61
2023-03-19T22:53:36.976Z,99150.90
2023-03-19T22:56:05.651Z,99147.15
2023-03-19T22:58:33.758Z,99147.90
2023-03-19T23:01:01.883Z,99150.10
2023-03-19T23:03:30.946Z,99158.59
2023-03-19T23:06:08.979Z,99148.96
2023-03-19T23:08:38.606Z,99151.29
2023-03-19T23:11:10.153Z,99155.55
2023-03-19T23:13:38.252Z,99153.66
2023-03-19T23:16:20.983Z,99151.39
2023-03-19T23:18:49.841Z,99153.04
2023-03-19T23:21:19.596Z,99149.95
2023-03-19T23:23:47.697Z,99152.27
2023-03-19T23:26:31.564Z,99153.48
2023-03-19T23:29:05.803Z,99155.98
2023-03-19T23:31:34.497Z,99157.82
2023-03-19T23:34:02.904Z,99158.40
2023-03-19T23:36:31.451Z,99153.32
2023-03-19T23:38:59.537Z,99153.09
2023-03-19T23:41:30.001Z,99153.88
2023-03-19T23:44:02.118Z,99147.16
2023-03-19T23:46:33.799Z,99147.27
2023-03-19T23:49:01.922Z,99143.21
2023-03-19T23:51:30.085Z,99143.23
2023-03-19T23:53:58.165Z,99141.64
2023-03-19T23:56:27.567Z,99133.76
